createdAt,value
2022-08-03T00:01:45.833Z,17.92
2022-08-03T00:04:14.239Z,17.80
2022-08-03T00:06:43.258Z,18.03
2022-08-03T00:09:12.976Z,17.92
2022-08-03T00:11:41.103Z,18.06
2022-08-03T00:14:09.345Z,17.98
2022-08-03T00:16:37.326Z,17.94
2022-08-03T00:19:05.438Z,17.96
2022-08-03T00:21:33.506Z,17.88
2022-08-03T00:24:01.683Z,17.92
2022-08-03T00:26:36.332Z,17.96
2022-08-03T00:29:04.633Z,17.91
2022-08-03T00:31:52.251Z,17.83
2022-08-03T00:34:29.870Z,17.79
2022-08-03T00:37:04.960Z,17.80
2022-08-03T00:39:32.822Z,17.75
2022-08-03T00:42:05.229Z,17.91
2022-08-03T00:44:40.034Z,17.85
2022-08-03T00:47:10.321Z,17.77
2022-08-03T00:49:38.879Z,17.78
2022-08-03T00:52:10.360Z,17.69
2022-08-03T00:54:39.527Z,17.70
2022-08-03T00:57:09.563Z,17.59
2022-08-03T00:59:38.378Z,17.67
2022-08-03T01:02:07.211Z,17.73
2022-08-03T01:04:35.330Z,17.77
2022-08-03T01:07:11.092Z,17.70
2022-08-03T01:09:47.359Z,17.71
2022-08-03T01:12:23.545Z,17.69
2022-08-03T01:14:57.612Z,17.75
2022-08-03T01:17:30.082Z,17.88
2022-08-03T01:20:03.740Z,17.91
2022-08-03T01:23:32.792Z,17.83
2022-08-03T01:26:39.799Z,17.78
2022-08-03T01:29:36.767Z,17.79
2022-08-03T01:32:58.316Z,17.84
2022-08-03T01:35:03.571Z,17.87
2022-08-03T01:37:38.665Z,17.69
2022-08-03T01:40:09.161Z,17.84
2022-08-03T01:42:41.110Z,17.78
2022-08-03T01:45:13.803Z,17.58
2022-08-03T01:47:43.443Z,17.62
2022-08-03T01:50:13.366Z,17.60
2022-08-03T01:52:43.818Z,17.50
2022-08-03T01:55:14.561Z,17.49
2022-08-03T01:58:04.878Z,17.37
2022-08-03T02:00:36.666Z,17.26
2022-08-03T02:03:07.053Z,17.37
2022-08-03T02:05:36.433Z,17.31
2022-08-03T02:08:07.081Z,17.42
2022-08-03T02:10:37.434Z,17.25
2022-08-03T02:13:08.406Z,17.20
2022-08-03T02:15:39.449Z,17.33
2022-08-03T02:18:10.472Z,17.30
2022-08-03T02:20:40.754Z,17.38
2022-08-03T02:23:09.014Z,17.24
2022-08-03T02:25:40.325Z,17.37
2022-08-03T02:28:16.661Z,17.42
2022-08-03T02:30:53.936Z,17.44
2022-08-03T02:33:28.226Z,17.37
2022-08-03T02:35:58.459Z,17.39
2022-08-03T02:38:32.374Z,17.38
2022-08-03T02:41:01.401Z,17.48
2022-08-03T02:43:39.073Z,17.26
2022-08-03T02:46:30.054Z,17.37
2022-08-03T02:49:00.386Z,17.29
2022-08-03T02:51:49.909Z,17.44
2022-08-03T02:54:20.176Z,17.33
2022-08-03T02:56:52.819Z,17.36
2022-08-03T02:59:22.425Z,17.45
2022-08-03T03:01:53.907Z,17.38
2022-08-03T03:04:22.801Z,17.40
2022-08-03T03:06:56.846Z,17.36
2022-08-03T03:09:25.922Z,17.23
2022-08-03T03:12:09.761Z,17.38
2022-08-03T03:14:38.865Z,17.28
2022-08-03T03:17:10.362Z,17.32
2022-08-03T03:19:41.217Z,17.32
2022-08-03T03:22:10.295Z,17.33
2022-08-03T03:24:40.957Z,17.32
2022-08-03T03:27:09.473Z,17.36
2022-08-03T03:29:39.394Z,17.27
2022-08-03T03:32:09.394Z,17.27
2022-08-03T03:34:38.694Z,17.31
2022-08-03T03:37:07.202Z,17.20
2022-08-03T03:39:36.445Z,17.30
2022-08-03T03:42:05.796Z,17.33
2022-08-03T03:44:33.770Z,17.23
2022-08-03T03:47:02.014Z,17.43
2022-08-03T03:49:32.461Z,17.35
2022-08-03T03:52:00.470Z,17.30
2022-08-03T03:54:29.434Z,17.32
2022-08-03T03:56:59.679Z,17.26
2022-08-03T03:59:27.816Z,17.24
2022-08-03T04:01:58.822Z,17.17
2022-08-03T04:04:46.893Z,17.28
2022-08-03T04:07:38.581Z,17.30
2022-08-03T04:10:31.436Z,17.33
2022-08-03T04:13:01.764Z,17.36
2022-08-03T04:15:30.489Z,17.40
2022-08-03T04:18:00.416Z,17.34
2022-08-03T04:20:33.053Z,17.43
2022-08-03T04:23:04.107Z,17.44
2022-08-03T04:25:44.700Z,17.45
2022-08-03T04:28:30.945Z,17.39
2022-08-03T04:31:01.321Z,17.50
2022-08-03T04:33:33.241Z,17.56
2022-08-03T04:36:08.030Z,17.41
2022-08-03T04:38:40.301Z,17.60
2022-08-03T04:41:10.209Z,17.53
2022-08-03T04:43:40.825Z,17.66
2022-08-03T04:46:10.460Z,17.73
2022-08-03T04:48:42.288Z,17.78
2022-08-03T04:51:13.195Z,17.79
2022-08-03T04:53:43.851Z,17.87
2022-08-03T04:56:14.113Z,17.91
2022-08-03T04:58:42.395Z,17.88
2022-08-03T05:01:10.443Z,17.98
2022-08-03T05:03:38.962Z,18.04
2022-08-03T05:06:09.664Z,18.15
2022-08-03T05:08:46.244Z,18.10
2022-08-03T05:11:17.081Z,18.21
2022-08-03T05:13:46.358Z,18.27
2022-08-03T05:16:17.767Z,18.32
2022-08-03T05:18:48.140Z,18.46
2022-08-03T05:21:17.087Z,18.59
2022-08-03T05:24:12.710Z,18.62
2022-08-03T05:26:45.656Z,18.68
2022-08-03T05:29:20.634Z,18.83
2022-08-03T05:31:48.583Z,19.02
2022-08-03T05:34:16.697Z,19.12
2022-08-03T05:36:44.805Z,19.23
2022-08-03T05:39:12.715Z,19.31
2022-08-03T05:41:40.881Z,19.40
2022-08-03T05:44:10.541Z,19.25
2022-08-03T05:46:38.513Z,19.31
2022-08-03T05:49:06.618Z,19.35
2022-08-03T05:51:35.624Z,19.41
2022-08-03T05:54:18.886Z,19.34
2022-08-03T05:56:47.036Z,19.49
2022-08-03T05:59:37.567Z,19.55
2022-08-03T06:02:09.629Z,19.67
2022-08-03T06:04:38.077Z,19.86
2022-08-03T06:07:06.054Z,19.79
2022-08-03T06:10:35.244Z,20.15
2022-08-03T06:12:22.873Z,20.32
2022-08-03T06:14:52.378Z,20.62
2022-08-03T06:17:21.112Z,20.75
2022-08-03T06:19:49.786Z,21.14
2022-08-03T06:22:21.390Z,21.51
2022-08-03T06:24:51.555Z,21.88
2022-08-03T06:27:36.561Z,21.93
2022-08-03T06:30:10.724Z,22.03
2022-08-03T06:32:39.291Z,21.93
2022-08-03T06:35:29.431Z,22.01
2022-08-03T06:37:57.799Z,22.23
2022-08-03T06:40:31.383Z,22.15
2022-08-03T06:43:10.719Z,22.27
2022-08-03T06:45:45.554Z,22.35
2022-08-03T06:48:15.969Z,22.84
2022-08-03T06:50:44.897Z,22.97
2022-08-03T06:53:22.910Z,22.95
2022-08-03T06:55:55.390Z,23.27
2022-08-03T06:58:26.386Z,23.22
2022-08-03T07:01:11.045Z,23.49
2022-08-03T07:03:47.620Z,23.79
2022-08-03T07:06:20.731Z,24.07
2022-08-03T07:08:52.313Z,23.39
2022-08-03T07:11:23.082Z,23.69
2022-08-03T07:13:51.054Z,23.84
2022-08-03T07:16:20.589Z,23.83
2022-08-03T07:18:48.788Z,24.55
2022-08-03T07:21:17.085Z,24.83
2022-08-03T07:23:44.985Z,24.99
2022-08-03T07:26:27.805Z,24.74
2022-08-03T07:28:57.337Z,25.19
2022-08-03T07:31:26.943Z,25.03
2022-08-03T07:33:56.269Z,25.45
2022-08-03T07:36:34.516Z,25.98
2022-08-03T07:39:16.578Z,26.28
2022-08-03T07:41:46.680Z,26.36
2022-08-03T07:44:16.726Z,26.82
2022-08-03T07:46:46.815Z,27.27
2022-08-03T07:49:14.976Z,26.81
2022-08-03T07:51:42.959Z,26.19
2022-08-03T07:54:11.262Z,26.01
2022-08-03T07:56:39.236Z,26.32
2022-08-03T07:59:07.251Z,26.83
2022-08-03T08:01:37.945Z,26.63
2022-08-03T08:04:07.542Z,26.56
2022-08-03T08:06:38.346Z,26.25
2022-08-03T08:09:07.486Z,26.95
2022-08-03T08:11:39.740Z,26.67
2022-08-03T08:14:09.864Z,27.20
2022-08-03T08:16:39.728Z,27.08
2022-08-03T08:19:10.294Z,27.73
2022-08-03T08:21:53.020Z,27.92
2022-08-03T08:24:31.340Z,27.79
2022-08-03T08:27:01.131Z,27.94
2022-08-03T08:29:29.921Z,27.75
2022-08-03T08:31:58.085Z,27.96
2022-08-03T08:34:43.523Z,28.69
2022-08-03T08:37:16.524Z,28.64
2022-08-03T08:39:45.192Z,29.11
2022-08-03T08:45:12.026Z,27.02
2022-08-03T08:47:50.942Z,27.46
2022-08-03T08:50:27.979Z,28.01
2022-08-03T08:53:06.155Z,28.19
2022-08-03T08:55:58.104Z,28.21
2022-08-03T08:58:31.441Z,28.35
2022-08-03T09:01:02.184Z,28.06
2022-08-03T09:03:31.338Z,28.59
2022-08-03T09:06:03.416Z,29.78
2022-08-03T09:08:32.946Z,28.35
2022-08-03T09:11:01.594Z,28.77
2022-08-03T09:13:38.808Z,29.03
2022-08-03T09:16:17.068Z,28.49
2022-08-03T09:18:52.288Z,28.70
2022-08-03T09:21:33.671Z,29.33
2022-08-03T09:24:13.046Z,29.68
2022-08-03T09:27:20.257Z,29.49
2022-08-03T09:29:57.742Z,29.17
2022-08-03T09:32:27.691Z,29.46
2022-08-03T09:35:05.684Z,29.52
2022-08-03T09:38:12.804Z,29.44
2022-08-03T09:40:43.826Z,29.94
2022-08-03T09:43:12.784Z,29.94
2022-08-03T09:45:44.419Z,30.03
2022-08-03T09:48:30.093Z,29.78
2022-08-03T09:51:12.766Z,29.81
2022-08-03T09:53:57.060Z,29.83
2022-08-03T09:57:01.396Z,29.20
2022-08-03T09:59:31.120Z,30.02
2022-08-03T10:02:26.608Z,29.82
2022-08-03T10:04:56.002Z,30.07
2022-08-03T10:07:26.662Z,30.62
2022-08-03T10:10:32.224Z,30.34
2022-08-03T10:13:03.826Z,30.24
2022-08-03T10:16:22.504Z,30.63
2022-08-03T10:18:24.948Z,31.08
2022-08-03T10:21:15.416Z,30.37
2022-08-03T10:24:03.893Z,30.55
2022-08-03T10:26:38.495Z,30.33
2022-08-03T10:29:24.785Z,31.08
2022-08-03T10:31:57.756Z,31.45
2022-08-03T10:34:35.580Z,30.89
2022-08-03T10:37:19.859Z,30.81
2022-08-03T10:39:57.452Z,30.20
2022-08-03T10:42:31.761Z,29.48
2022-08-03T10:45:07.447Z,29.48
2022-08-03T10:47:37.086Z,28.53
2022-08-03T10:50:07.279Z,28.88
2022-08-03T10:52:40.991Z,28.94
2022-08-03T10:55:52.297Z,29.45
2022-08-03T10:58:53.255Z,29.87
2022-08-03T11:01:59.957Z,31.64
2022-08-03T11:04:54.462Z,31.47
2022-08-03T11:07:31.778Z,31.02
2022-08-03T11:12:44.155Z,32.85
2022-08-03T11:15:33.745Z,33.45
2022-08-03T11:18:11.643Z,31.14
2022-08-03T11:20:47.492Z,32.20
2022-08-03T11:23:16.015Z,32.33
2022-08-03T11:26:26.716Z,30.66
2022-08-03T11:28:54.653Z,30.42
2022-08-03T11:31:52.457Z,30.60
2022-08-03T11:34:20.448Z,32.38
2022-08-03T11:37:27.252Z,31.97
2022-08-03T11:43:08.275Z,32.65
2022-08-03T11:45:38.621Z,32.60
2022-08-03T11:48:28.471Z,33.75
2022-08-03T11:50:58.682Z,33.09
2022-08-03T11:53:26.957Z,32.97
2022-08-03T11:55:57.920Z,31.72
2022-08-03T11:59:11.284Z,32.44
2022-08-03T12:01:21.266Z,32.53
2022-08-03T12:04:11.564Z,32.62
2022-08-03T12:06:53.513Z,32.15
2022-08-03T12:09:21.674Z,32.80
2022-08-03T12:11:59.383Z,33.15
2022-08-03T12:14:50.842Z,33.59
2022-08-03T12:17:35.336Z,35.08
2022-08-03T12:20:07.571Z,34.75
2022-08-03T12:22:37.455Z,35.07
2022-08-03T12:25:10.956Z,33.67
2022-08-03T12:27:38.860Z,32.66
2022-08-03T12:30:34.629Z,34.46
2022-08-03T12:33:35.328Z,33.55
2022-08-03T12:36:28.341Z,35.10
2022-08-03T12:39:07.393Z,33.77
2022-08-03T12:41:45.676Z,33.45
2022-08-03T12:44:16.071Z,34.05
2022-08-03T12:46:47.945Z,33.06
2022-08-03T12:49:19.238Z,33.91
2022-08-03T12:52:16.402Z,33.95
2022-08-03T12:55:04.661Z,34.75
2022-08-03T12:57:44.433Z,33.89
2022-08-03T13:00:21.369Z,33.72
2022-08-03T13:03:39.008Z,34.01
2022-08-03T13:06:04.086Z,33.02
2022-08-03T13:08:35.478Z,34.65
2022-08-03T13:11:53.529Z,33.69
2022-08-03T13:14:28.383Z,33.62
2022-08-03T13:16:56.609Z,33.57
2022-08-03T13:19:27.005Z,34.19
2022-08-03T13:22:11.550Z,32.42
2022-08-03T13:24:48.867Z,32.74
2022-08-03T13:28:03.094Z,33.84
2022-08-03T13:30:11.662Z,33.62
2022-08-03T13:32:40.115Z,32.48
2022-08-03T13:35:09.718Z,33.15
2022-08-03T13:37:39.903Z,33.87
2022-08-03T13:40:11.631Z,33.86
2022-08-03T13:42:40.332Z,34.02
2022-08-03T13:45:09.608Z,31.96
2022-08-03T13:47:39.432Z,31.39
2022-08-03T13:50:08.070Z,32.48
2022-08-03T13:52:37.499Z,32.56
2022-08-03T13:55:07.656Z,32.78
2022-08-03T13:58:03.232Z,33.07
2022-08-03T14:00:28.916Z,33.30
2022-08-03T14:03:10.857Z,32.66
2022-08-03T14:05:41.066Z,32.77
2022-08-03T14:08:14.068Z,33.13
2022-08-03T14:10:44.536Z,33.18
2022-08-03T14:13:17.961Z,32.69
2022-08-03T14:15:51.944Z,33.42
2022-08-03T14:18:28.622Z,32.51
2022-08-03T14:21:05.786Z,33.46
2022-08-03T14:23:35.537Z,32.46
2022-08-03T14:26:03.614Z,32.66
2022-08-03T14:28:33.666Z,32.49
2022-08-03T14:31:02.453Z,32.61
2022-08-03T14:33:31.581Z,32.58
2022-08-03T14:36:00.007Z,32.56
2022-08-03T14:38:28.311Z,32.75
2022-08-03T14:40:57.510Z,32.37
2022-08-03T14:43:25.879Z,31.86
2022-08-03T14:46:03.735Z,31.43
2022-08-03T14:50:34.601Z,32.39
2022-08-03T14:51:19.886Z,32.50
2022-08-03T14:53:47.975Z,32.51
2022-08-03T14:56:16.299Z,32.80
2022-08-03T14:58:44.326Z,33.47
2022-08-03T15:02:02.697Z,33.34
2022-08-03T15:04:01.740Z,32.86
2022-08-03T15:06:29.750Z,33.45
2022-08-03T15:09:22.437Z,32.36
2022-08-03T15:11:47.442Z,32.27
2022-08-03T15:14:15.582Z,31.86
2022-08-03T15:16:45.719Z,32.38
2022-08-03T15:20:03.797Z,31.67
2022-08-03T15:22:01.743Z,31.52
2022-08-03T15:24:30.405Z,31.88
2022-08-03T15:26:58.959Z,32.43
2022-08-03T15:30:07.451Z,32.60
2022-08-03T15:32:16.833Z,32.67
2022-08-03T15:34:50.632Z,33.10
2022-08-03T15:37:20.010Z,33.71
2022-08-03T15:39:58.282Z,33.04
2022-08-03T15:42:30.747Z,33.21
2022-08-03T15:44:59.176Z,32.97
2022-08-03T15:47:28.757Z,32.10
2022-08-03T15:49:57.223Z,32.43
2022-08-03T15:52:25.239Z,32.59
2022-08-03T15:54:53.531Z,32.99
2022-08-03T15:57:22.606Z,32.71
2022-08-03T15:59:51.066Z,31.45
2022-08-03T16:02:19.967Z,32.61
2022-08-03T16:04:49.469Z,32.94
2022-08-03T16:07:38.232Z,32.34
2022-08-03T16:10:06.947Z,32.32
2022-08-03T16:12:35.445Z,32.99
2022-08-03T16:15:11.193Z,32.86
2022-08-03T16:17:39.681Z,32.94
2022-08-03T16:20:30.993Z,30.92
2022-08-03T16:23:00.650Z,31.98
2022-08-03T16:25:32.483Z,31.28
2022-08-03T16:28:07.911Z,32.03
2022-08-03T16:30:43.670Z,32.68
2022-08-03T16:33:16.960Z,32.51
2022-08-03T16:35:49.656Z,32.42
2022-08-03T16:38:19.511Z,31.16
2022-08-03T16:40:51.952Z,30.80
2022-08-03T16:43:25.030Z,31.78
2022-08-03T16:45:59.938Z,31.53
2022-08-03T16:48:28.351Z,31.20
2022-08-03T16:50:59.057Z,31.74
2022-08-03T16:53:51.655Z,31.26
2022-08-03T16:56:16.454Z,31.69
2022-08-03T16:58:48.036Z,31.58
2022-08-03T17:01:29.305Z,32.27
2022-08-03T17:04:06.966Z,32.06
2022-08-03T17:06:44.806Z,31.72
2022-08-03T17:09:18.200Z,31.35
2022-08-03T17:11:50.492Z,31.04
2022-08-03T17:14:28.532Z,31.23
2022-08-03T17:17:06.909Z,30.62
2022-08-03T17:19:40.941Z,30.07
2022-08-03T17:22:22.559Z,29.87
2022-08-03T17:24:56.458Z,30.62
2022-08-03T17:28:48.254Z,30.57
2022-08-03T17:30:50.588Z,30.86
2022-08-03T17:33:20.669Z,30.66
2022-08-03T17:35:54.482Z,30.32
2022-08-03T17:38:31.852Z,30.17
2022-08-03T17:41:10.543Z,29.91
2022-08-03T17:44:13.169Z,30.06
2022-08-03T17:46:32.917Z,30.64
2022-08-03T17:49:05.664Z,30.24
2022-08-03T17:51:59.443Z,29.59
2022-08-03T17:55:50.801Z,29.67
2022-08-03T17:58:02.845Z,29.68
2022-08-03T18:00:48.269Z,29.85
2022-08-03T18:06:17.599Z,29.15
2022-08-03T18:09:00.156Z,28.67
2022-08-03T18:11:39.325Z,28.92
2022-08-03T18:14:16.584Z,29.82
2022-08-03T18:16:47.210Z,28.81
2022-08-03T18:19:15.852Z,29.30
2022-08-03T18:22:03.614Z,29.31
2022-08-03T18:24:32.671Z,29.45
2022-08-03T18:27:05.628Z,29.16
2022-08-03T18:29:37.224Z,28.45
2022-08-03T18:32:13.490Z,27.74
2022-08-03T18:34:53.125Z,27.85
2022-08-03T18:37:25.747Z,27.39
2022-08-03T18:39:57.945Z,27.20
2022-08-03T18:42:28.915Z,26.80
2022-08-03T18:45:57.735Z,26.66
2022-08-03T18:48:02.290Z,26.29
2022-08-03T18:50:36.059Z,26.17
2022-08-03T18:53:19.471Z,25.89
2022-08-03T18:56:02.293Z,25.59
2022-08-03T18:58:38.711Z,25.29
2022-08-03T19:04:11.088Z,24.72
2022-08-03T19:06:43.485Z,24.46
2022-08-03T19:09:23.338Z,24.22
2022-08-03T19:12:13.927Z,23.95
2022-08-03T19:14:53.604Z,23.76
2022-08-03T19:17:42.083Z,23.57
2022-08-03T19:20:40.045Z,23.20
2022-08-03T19:23:12.534Z,23.21
2022-08-03T19:25:42.204Z,22.99
2022-08-03T19:28:11.106Z,22.89
2022-08-03T19:30:53.224Z,22.78
2022-08-03T19:33:29.810Z,22.58
2022-08-03T19:35:59.221Z,22.38
2022-08-03T19:38:29.999Z,22.32
2022-08-03T19:41:00.184Z,22.26
2022-08-03T19:43:49.408Z,22.10
2022-08-03T19:46:33.680Z,22.07
2022-08-03T19:49:10.658Z,22.08
2022-08-03T19:51:58.457Z,21.88
2022-08-03T19:54:45.707Z,21.87
2022-08-03T19:57:27.543Z,21.65
2022-08-03T19:59:56.546Z,21.60
2022-08-03T20:02:28.086Z,21.53
2022-08-03T20:05:01.343Z,21.31
2022-08-03T20:07:32.380Z,21.30
2022-08-03T20:10:01.988Z,21.40
2022-08-03T20:12:36.975Z,21.24
2022-08-03T20:15:09.185Z,21.22
2022-08-03T20:17:56.710Z,21.10
2022-08-03T20:20:31.193Z,21.13
2022-08-03T20:23:10.342Z,21.04
2022-08-03T20:25:57.068Z,21.18
2022-08-03T20:28:34.667Z,21.09
2022-08-03T20:31:05.207Z,21.04
2022-08-03T20:33:48.880Z,20.88
2022-08-03T20:36:18.714Z,20.76
2022-08-03T20:38:47.845Z,20.92
2022-08-03T20:41:17.550Z,20.78
2022-08-03T20:43:49.257Z,20.75
2022-08-03T20:46:31.329Z,20.67
2022-08-03T20:49:06.486Z,20.71
2022-08-03T20:51:49.744Z,20.58
2022-08-03T20:54:31.565Z,20.55
2022-08-03T20:57:04.130Z,20.62
2022-08-03T21:02:29.766Z,20.56
2022-08-03T21:05:08.556Z,20.47
2022-08-03T21:08:03.726Z,20.40
2022-08-03T21:10:35.822Z,20.36
2022-08-03T21:13:01.162Z,24.98
2022-08-03T21:13:04.133Z,29.62
2022-08-03T21:13:12.285Z,20.55
2022-08-03T21:13:17.542Z,20.16
2022-08-03T21:16:07.080Z,20.07
2022-08-03T21:18:46.897Z,20.17
2022-08-03T21:21:19.274Z,19.90
2022-08-03T21:23:53.682Z,19.98
2022-08-03T21:26:23.481Z,20.00
2022-08-03T21:28:54.381Z,20.09
2022-08-03T21:31:25.438Z,19.97
2022-08-03T21:33:58.555Z,19.99
2022-08-03T21:36:31.091Z,19.86
2022-08-03T21:39:04.680Z,19.96
2022-08-03T21:41:33.660Z,19.80
2022-08-03T21:44:02.393Z,19.73
2022-08-03T21:46:36.263Z,19.66
2022-08-03T21:50:07.079Z,19.63
2022-08-03T21:52:30.907Z,19.52
2022-08-03T21:55:02.317Z,19.51
2022-08-03T21:57:40.135Z,19.50
2022-08-03T22:00:12.954Z,19.67
2022-08-03T22:02:42.805Z,19.56
2022-08-03T22:05:13.669Z,19.49
2022-08-03T22:07:46.221Z,19.43
2022-08-03T22:10:15.671Z,19.42
2022-08-03T22:12:43.791Z,19.34
2022-08-03T22:15:14.909Z,19.31
2022-08-03T22:17:55.007Z,19.35
2022-08-03T22:20:25.285Z,19.19
2022-08-03T22:22:57.041Z,19.35
2022-08-03T22:25:30.081Z,19.38
2022-08-03T22:28:05.184Z,19.25
2022-08-03T22:30:34.083Z,19.16
2022-08-03T22:33:03.927Z,19.10
2022-08-03T22:35:47.217Z,19.07
2022-08-03T22:38:18.821Z,19.23
2022-08-03T22:40:49.035Z,19.14
2022-08-03T22:43:17.689Z,19.04
2022-08-03T22:46:09.192Z,19.20
2022-08-03T22:48:41.429Z,19.02
2022-08-03T22:51:10.444Z,19.13
2022-08-03T22:53:40.376Z,19.05
2022-08-03T22:56:09.353Z,19.12
2022-08-03T22:58:37.565Z,19.14
2022-08-03T23:01:08.328Z,19.14
2022-08-03T23:04:01.248Z,19.05
2022-08-03T23:06:28.465Z,19.11
2022-08-03T23:08:59.416Z,19.06
2022-08-03T23:11:29.661Z,18.93
2022-08-03T23:14:00.593Z,18.90
2022-08-03T23:16:32.733Z,18.92
2022-08-03T23:19:16.530Z,18.78
2022-08-03T23:22:00.702Z,18.94
2022-08-03T23:24:35.953Z,18.95
2022-08-03T23:27:08.150Z,18.90
2022-08-03T23:29:37.767Z,18.83
2022-08-03T23:32:07.206Z,18.53
2022-08-03T23:34:59.644Z,18.82
2022-08-03T23:37:27.997Z,18.60
2022-08-03T23:39:59.763Z,18.77
2022-08-03T23:42:29.255Z,18.62
2022-08-03T23:45:05.841Z,18.73
2022-08-03T23:47:46.264Z,18.56
2022-08-03T23:50:15.810Z,18.59
2022-08-03T23:52:54.011Z,18.92
2022-08-03T23:55:45.921Z,18.67
2022-08-03T23:58:28.182Z,18.69
